createdAt,value
2018-09-22T00:00:00.937Z,96184.00
2018-09-22T00:02:31.246Z,96186.00
2018-09-22T00:05:02.251Z,96179.00
2018-09-22T00:07:32.665Z,96185.00
2018-09-22T00:10:03.024Z,96191.00
2018-09-22T00:12:33.378Z,96194.00
2018-09-22T00:15:03.738Z,96203.00
2018-09-22T00:17:33.990Z,96206.00
2018-09-22T00:20:04.383Z,96218.00
2018-09-22T00:22:34.642Z,96219.00
2018-09-22T00:25:05.069Z,96232.00
2018-09-22T00:27:35.446Z,96230.00
2018-09-22T00:30:06.019Z,96234.00
2018-09-22T00:32:36.297Z,96236.00
2018-09-22T00:35:07.721Z,96222.00
2018-09-22T00:37:38.099Z,96233.00
2018-09-22T00:40:08.491Z,96221.00
2018-09-22T00:42:38.831Z,96221.00
2018-09-22T00:45:09.127Z,96220.00
2018-09-22T00:47:39.418Z,96234.00
2018-09-22T00:50:10.145Z,96230.00
2018-09-22T00:52:40.442Z,96231.00
2018-09-22T00:55:11.305Z,96239.00
2018-09-22T00:57:41.582Z,96241.00
2018-09-22T01:00:12.242Z,96248.00
2018-09-22T01:02:42.536Z,96242.00
2018-09-22T01:05:13.102Z,96246.00
2018-09-22T01:07:43.438Z,96248.00
2018-09-22T01:10:14.060Z,96248.00
2018-09-22T01:12:44.406Z,96259.00
2018-09-22T01:15:14.691Z,96255.00
2018-09-22T01:17:45.107Z,96259.00
2018-09-22T01:20:15.341Z,96262.00
2018-09-22T01:22:45.729Z,96277.00
2018-09-22T01:25:15.980Z,96283.00
2018-09-22T01:27:46.310Z,96277.00
2018-09-22T01:30:16.670Z,96283.00
2018-09-22T01:32:46.996Z,96283.00
2018-09-22T01:35:17.281Z,96289.00
2018-09-22T01:37:47.649Z,96288.00
2018-09-22T01:40:18.021Z,96286.00
2018-09-22T01:42:48.381Z,96289.00
2018-09-22T01:45:18.818Z,96289.00
2018-09-22T01:47:49.145Z,96300.00
2018-09-22T01:50:19.490Z,96293.00
2018-09-22T01:52:49.763Z,96288.00
2018-09-22T01:55:20.462Z,96293.00
2018-09-22T01:57:50.839Z,96309.00
2018-09-22T02:00:21.261Z,96310.00
2018-09-22T02:02:51.712Z,96300.00
2018-09-22T02:05:22.121Z,96301.00
2018-09-22T02:07:52.606Z,96295.00
2018-09-22T02:10:22.974Z,96302.00
2018-09-22T02:12:53.399Z,96294.00
2018-09-22T02:15:23.844Z,96305.00
2018-09-22T02:17:54.478Z,96292.00
2018-09-22T02:20:24.905Z,96309.00
2018-09-22T02:22:55.454Z,96298.00
2018-09-22T02:25:26.283Z,96316.00
2018-09-22T02:27:59.206Z,96316.00
2018-09-22T02:30:29.487Z,96294.00
2018-09-22T02:32:59.842Z,96283.00
2018-09-22T02:35:30.494Z,96281.00
2018-09-22T02:38:00.884Z,96281.00
2018-09-22T02:40:31.326Z,96280.00
2018-09-22T02:43:02.301Z,96286.00
2018-09-22T02:45:32.620Z,96275.00
2018-09-22T02:48:02.973Z,96293.00
2018-09-22T02:50:33.674Z,96292.00
2018-09-22T02:53:04.611Z,96299.00
2018-09-22T02:55:34.975Z,96305.00
2018-09-22T02:58:05.309Z,96315.00
2018-09-22T03:00:35.614Z,96328.00
2018-09-22T03:03:05.948Z,96341.00
2018-09-22T03:05:36.687Z,96333.00
2018-09-22T03:08:07.237Z,96329.00
2018-09-22T03:10:37.616Z,96312.00
2018-09-22T03:13:08.002Z,96322.00
2018-09-22T03:15:38.331Z,96338.00
2018-09-22T03:18:08.715Z,96339.00
2018-09-22T03:20:39.130Z,96361.00
2018-09-22T03:23:09.838Z,96355.00
2018-09-22T03:25:40.178Z,96348.00
2018-09-22T03:28:10.863Z,96342.00
2018-09-22T03:30:41.278Z,96325.00
2018-09-22T03:33:13.006Z,96329.00
2018-09-22T03:35:43.339Z,96318.00
2018-09-22T03:38:13.621Z,96323.00
2018-09-22T03:40:43.981Z,96336.00
2018-09-22T03:43:14.345Z,96329.00
2018-09-22T03:45:44.676Z,96343.00
2018-09-22T03:48:14.986Z,96360.00
2018-09-22T03:50:45.477Z,96349.00
2018-09-22T03:53:15.787Z,96337.00
2018-09-22T03:55:46.886Z,96343.00
2018-09-22T03:58:17.627Z,96351.00
2018-09-22T04:00:47.965Z,96341.00
2018-09-22T04:03:18.406Z,96368.00
2018-09-22T04:05:48.817Z,96369.00
2018-09-22T04:08:19.111Z,96364.00
2018-09-22T04:10:49.619Z,96376.00
2018-09-22T04:13:19.918Z,96369.00
2018-09-22T04:15:51.020Z,96366.00
2018-09-22T04:18:21.370Z,96359.00
2018-09-22T04:20:51.768Z,96371.00
2018-09-22T04:23:22.471Z,96356.00
2018-09-22T04:25:53.276Z,96365.00
2018-09-22T04:28:23.698Z,96365.00
2018-09-22T04:30:54.027Z,96361.00
2018-09-22T04:33:24.397Z,96357.00
2018-09-22T04:35:54.730Z,96350.00
2018-09-22T04:38:25.017Z,96358.00
2018-09-22T04:40:56.089Z,96364.00
2018-09-22T04:43:26.854Z,96366.00
2018-09-22T04:45:57.397Z,96356.00
2018-09-22T04:48:27.745Z,96354.00
2018-09-22T04:50:58.121Z,96352.00
2018-09-22T04:53:28.478Z,96352.00
2018-09-22T04:55:59.212Z,96346.00
2018-09-22T04:58:29.955Z,96357.00
2018-09-22T05:01:00.542Z,96357.00
2018-09-22T05:03:30.918Z,96361.00
2018-09-22T05:06:01.346Z,96358.00
2018-09-22T05:08:31.635Z,96359.00
2018-09-22T05:11:02.073Z,96371.00
2018-09-22T05:13:32.446Z,96368.00
2018-09-22T05:16:02.873Z,96370.00
2018-09-22T05:18:33.263Z,96367.00
2018-09-22T05:21:04.381Z,96377.00
2018-09-22T05:23:34.794Z,96369.00
2018-09-22T05:26:05.582Z,96367.00
2018-09-22T05:28:35.913Z,96368.00
2018-09-22T05:31:06.860Z,96373.00
2018-09-22T05:33:37.239Z,96371.00
2018-09-22T05:36:07.527Z,96363.00
2018-09-22T05:38:38.003Z,96374.00
2018-09-22T05:41:08.394Z,96367.00
2018-09-22T05:43:38.737Z,96369.00
2018-09-22T05:46:09.108Z,96373.00
2018-09-22T05:48:39.531Z,96381.00
2018-09-22T05:51:09.989Z,96383.00
2018-09-22T05:53:40.328Z,96389.00
2018-09-22T05:56:11.101Z,96389.00
2018-09-22T05:58:41.482Z,96400.00
2018-09-22T06:01:12.341Z,96397.00
2018-09-22T06:03:42.669Z,96400.00
2018-09-22T06:06:13.095Z,96401.00
2018-09-22T06:08:43.397Z,96406.00
2018-09-22T06:11:14.083Z,96422.00
2018-09-22T06:13:44.446Z,96417.00
2018-09-22T06:16:14.826Z,96414.00
2018-09-22T06:18:45.179Z,96407.00
2018-09-22T06:21:15.957Z,96416.00
2018-09-22T06:23:46.315Z,96411.00
2018-09-22T06:26:16.733Z,96412.00
2018-09-22T06:28:47.154Z,96412.00
2018-09-22T06:31:17.847Z,96414.00
2018-09-22T06:33:48.506Z,96410.00
2018-09-22T06:36:18.921Z,96400.00
2018-09-22T06:38:49.237Z,96414.00
2018-09-22T06:41:19.691Z,96418.00
2018-09-22T06:43:50.007Z,96417.00
2018-09-22T06:46:20.584Z,96405.00
2018-09-22T06:48:52.090Z,96409.00
2018-09-22T06:51:22.565Z,96394.00
2018-09-22T06:53:52.993Z,96408.00
2018-09-22T06:56:23.354Z,96410.00
2018-09-22T06:58:53.776Z,96416.00
2018-09-22T07:01:24.114Z,96409.00
2018-09-22T07:03:56.655Z,96414.00
2018-09-22T07:06:27.732Z,96407.00
2018-09-22T07:08:59.065Z,96400.00
2018-09-22T07:11:29.396Z,96402.00
2018-09-22T07:13:59.867Z,96396.00
2018-09-22T07:16:30.224Z,96409.00
2018-09-22T07:19:01.184Z,96409.00
2018-09-22T07:21:36.726Z,96414.00
2018-09-22T07:24:07.090Z,96421.00
2018-09-22T07:26:37.505Z,96418.00
2018-09-22T07:29:09.447Z,96430.00
2018-09-22T07:31:41.030Z,96430.00
2018-09-22T07:34:17.715Z,96433.00
2018-09-22T07:36:49.900Z,96416.00
2018-09-22T07:39:21.108Z,96426.00
2018-09-22T07:41:51.442Z,96425.00
2018-09-22T07:44:23.047Z,96420.00
2018-09-22T07:46:56.010Z,96427.00
2018-09-22T07:49:26.870Z,96426.00
2018-09-22T07:52:00.522Z,96423.00
2018-09-22T07:54:34.855Z,96414.00
2018-09-22T07:57:06.316Z,96417.00
2018-09-22T07:59:36.864Z,96413.00
2018-09-22T08:02:08.705Z,96413.00
2018-09-22T08:04:39.424Z,96411.00
2018-09-22T08:07:12.606Z,96417.00
2018-09-22T08:09:45.319Z,96414.00
2018-09-22T08:12:16.816Z,96421.00
2018-09-22T08:14:52.706Z,96410.00
2018-09-22T08:17:23.101Z,96412.00
2018-09-22T08:19:53.676Z,96420.00
2018-09-22T08:22:24.029Z,96415.00
2018-09-22T08:24:55.142Z,96412.00
2018-09-22T08:27:25.497Z,96410.00
2018-09-22T08:29:56.446Z,96399.00
2018-09-22T08:32:27.096Z,96394.00
2018-09-22T08:34:57.954Z,96393.00
2018-09-22T08:37:30.491Z,96393.00
2018-09-22T08:40:01.297Z,96396.00
2018-09-22T08:42:31.864Z,96402.00
2018-09-22T08:45:02.352Z,96405.00
2018-09-22T08:47:39.956Z,96408.00
2018-09-22T08:50:11.407Z,96406.00
2018-09-22T08:52:41.708Z,96417.00
2018-09-22T08:55:12.980Z,96407.00
2018-09-22T08:57:43.386Z,96407.00
2018-09-22T09:00:13.916Z,96404.00
2018-09-22T09:02:45.203Z,96397.00
2018-09-22T09:05:15.713Z,96396.00
2018-09-22T09:07:48.223Z,96413.00
2018-09-22T09:10:21.232Z,96411.00
2018-09-22T09:12:51.707Z,96415.00
2018-09-22T09:15:22.471Z,96409.00
2018-09-22T09:17:52.863Z,96413.00
2018-09-22T09:20:24.014Z,96407.00
2018-09-22T09:22:55.098Z,96416.00
2018-09-22T09:25:25.983Z,96421.00
2018-09-22T09:27:57.658Z,96427.00
2018-09-22T09:30:32.761Z,96426.00
2018-09-22T09:33:06.350Z,96427.00
2018-09-22T09:35:37.551Z,96432.00
2018-09-22T09:38:09.107Z,96434.00
2018-09-22T09:40:39.944Z,96430.00
2018-09-22T09:43:12.453Z,96428.00
2018-09-22T09:45:44.413Z,96414.00
2018-09-22T09:48:22.624Z,96413.00
2018-09-22T09:50:59.600Z,96424.00
2018-09-22T09:53:34.607Z,96424.00
2018-09-22T09:56:06.187Z,96417.00
2018-09-22T09:58:37.776Z,96424.00
2018-09-22T10:01:08.339Z,96417.00
2018-09-22T10:03:38.882Z,96402.00
2018-09-22T10:06:09.339Z,96406.00
2018-09-22T10:08:40.150Z,96392.00
2018-09-22T10:11:11.319Z,96392.00
2018-09-22T10:13:41.966Z,96391.00
2018-09-22T10:16:12.430Z,96387.00
2018-09-22T10:18:42.834Z,96380.00
2018-09-22T10:21:13.210Z,96372.00
2018-09-22T10:23:47.125Z,96375.00
2018-09-22T10:26:17.796Z,96373.00
2018-09-22T10:28:48.256Z,96367.00
2018-09-22T10:31:30.269Z,96360.00
2018-09-22T10:34:04.255Z,96360.00
2018-09-22T10:36:34.729Z,96366.00
2018-09-22T10:39:06.973Z,96359.00
2018-09-22T10:41:44.589Z,96351.00
2018-09-22T10:44:15.348Z,96352.00
2018-09-22T10:46:46.248Z,96358.00
2018-09-22T10:49:18.048Z,96361.00
2018-09-22T10:51:49.117Z,96334.00
2018-09-22T10:54:19.876Z,96327.00
2018-09-22T10:56:50.533Z,96331.00
2018-09-22T10:59:22.457Z,96339.00
2018-09-22T11:01:52.897Z,96350.00
2018-09-22T11:04:23.558Z,96336.00
2018-09-22T11:06:54.052Z,96341.00
2018-09-22T11:09:24.486Z,96344.00
2018-09-22T11:11:54.843Z,96359.00
2018-09-22T11:14:25.273Z,96362.00
2018-09-22T11:16:55.642Z,96357.00
2018-09-22T11:19:26.838Z,96349.00
2018-09-22T11:21:57.258Z,96353.00
2018-09-22T11:24:27.951Z,96347.00
2018-09-22T11:26:58.336Z,96357.00
2018-09-22T11:29:34.944Z,96361.00
2018-09-22T11:32:06.794Z,96345.00
2018-09-22T11:34:40.002Z,96352.00
2018-09-22T11:37:13.174Z,96354.00
2018-09-22T11:39:53.190Z,96335.00
2018-09-22T11:42:25.886Z,96326.00
2018-09-22T11:44:56.469Z,96328.00
2018-09-22T11:47:27.664Z,96314.00
2018-09-22T11:49:58.200Z,96309.00
2018-09-22T11:52:33.840Z,96299.00
2018-09-22T11:55:06.882Z,96297.00
2018-09-22T11:57:37.550Z,96282.00
2018-09-22T12:00:11.711Z,96287.00
2018-09-22T12:02:47.315Z,96258.00
2018-09-22T12:05:18.058Z,96262.00
2018-09-22T12:07:48.903Z,96264.00
2018-09-22T12:10:20.993Z,96264.00
2018-09-22T12:12:52.608Z,96272.00
2018-09-22T12:15:24.325Z,96276.00
2018-09-22T12:17:56.186Z,96254.00
2018-09-22T12:20:27.316Z,96256.00
2018-09-22T12:22:59.193Z,96262.00
2018-09-22T12:25:29.517Z,96260.00
2018-09-22T12:28:03.985Z,96262.00
2018-09-22T12:30:36.031Z,96265.00
2018-09-22T12:33:06.759Z,96272.00
2018-09-22T12:35:37.504Z,96276.00
2018-09-22T12:38:10.286Z,96279.00
2018-09-22T12:40:40.802Z,96268.00
2018-09-22T12:43:11.822Z,96269.00
2018-09-22T12:45:43.383Z,96276.00
2018-09-22T12:48:15.827Z,96281.00
2018-09-22T12:50:47.097Z,96282.00
2018-09-22T12:53:19.971Z,96265.00
2018-09-22T12:55:50.929Z,96266.00
2018-09-22T12:58:21.513Z,96269.00
2018-09-22T13:00:52.066Z,96260.00
2018-09-22T13:03:23.762Z,96248.00
2018-09-22T13:05:54.699Z,96241.00
2018-09-22T13:08:26.224Z,96228.00
2018-09-22T13:10:57.841Z,96228.00
2018-09-22T13:13:28.838Z,96229.00
2018-09-22T13:16:02.484Z,96234.00
2018-09-22T13:18:33.283Z,96227.00
2018-09-22T13:21:04.567Z,96234.00
2018-09-22T13:23:35.252Z,96228.00
2018-09-22T13:26:06.278Z,96241.00
2018-09-22T13:28:42.569Z,96229.00
2018-09-22T13:31:13.250Z,96217.00
2018-09-22T13:33:44.694Z,96202.00
2018-09-22T13:36:16.093Z,96193.00
2018-09-22T13:38:46.589Z,96181.00
2018-09-22T13:41:16.982Z,96178.00
2018-09-22T13:43:47.777Z,96174.00
2018-09-22T13:46:18.769Z,96164.00
2018-09-22T13:48:49.309Z,96164.00
2018-09-22T13:51:19.803Z,96169.00
2018-09-22T13:53:52.052Z,96179.00
2018-09-22T13:56:23.351Z,96187.00
2018-09-22T13:58:54.196Z,96196.00
2018-09-22T14:01:31.548Z,96193.00
2018-09-22T14:04:02.207Z,96188.00
2018-09-22T14:06:46.983Z,96185.00
2018-09-22T14:09:17.289Z,96193.00
2018-09-22T14:11:47.782Z,96190.00
2018-09-22T14:14:18.565Z,96186.00
2018-09-22T14:16:49.595Z,96184.00
2018-09-22T14:19:27.567Z,96175.00
2018-09-22T14:21:58.029Z,96182.00
2018-09-22T14:24:29.930Z,96179.00
2018-09-22T14:27:13.084Z,96182.00
2018-09-22T14:29:46.351Z,96180.00
2018-09-22T14:32:18.068Z,96193.00
2018-09-22T14:34:49.460Z,96182.00
2018-09-22T14:37:20.085Z,96184.00
2018-09-22T14:39:51.221Z,96181.00
2018-09-22T14:42:26.008Z,96171.00
2018-09-22T14:44:59.572Z,96163.00
2018-09-22T14:47:38.375Z,96169.00
2018-09-22T14:50:10.851Z,96182.00
2018-09-22T14:52:44.555Z,96177.00
2018-09-22T14:55:16.838Z,96169.00
2018-09-22T14:57:50.718Z,96164.00
2018-09-22T15:00:28.862Z,96164.00
2018-09-22T15:03:19.388Z,96158.00
2018-09-22T15:06:00.522Z,96154.00
2018-09-22T15:08:40.550Z,96144.00
2018-09-22T15:11:17.612Z,96151.00
2018-09-22T15:13:55.536Z,96152.00
2018-09-22T15:16:37.398Z,96142.00
2018-09-22T15:19:09.477Z,96139.00
2018-09-22T15:21:40.266Z,96134.00
2018-09-22T15:24:10.589Z,96139.00
2018-09-22T15:26:41.246Z,96144.00
2018-09-22T15:29:11.651Z,96151.00
2018-09-22T15:31:42.201Z,96156.00
2018-09-22T15:34:16.810Z,96157.00
2018-09-22T15:36:53.124Z,96163.00
2018-09-22T15:39:28.898Z,96142.00
2018-09-22T15:42:05.993Z,96141.00
2018-09-22T15:44:37.039Z,96123.00
2018-09-22T15:47:07.667Z,96120.00
2018-09-22T15:49:40.135Z,96099.00
2018-09-22T15:52:11.473Z,96096.00
2018-09-22T15:54:44.116Z,96103.00
2018-09-22T15:57:14.635Z,96113.00
2018-09-22T15:59:48.441Z,96118.00
2018-09-22T16:02:21.007Z,96110.00
2018-09-22T16:04:57.633Z,96117.00
2018-09-22T16:07:34.496Z,96101.00
2018-09-22T16:10:06.874Z,96083.00
2018-09-22T16:12:39.457Z,95917.00
2018-09-22T16:15:12.633Z,96100.00
2018-09-22T16:17:56.483Z,96107.00
2018-09-22T16:20:35.926Z,96118.00
2018-09-22T16:23:07.606Z,96125.00
2018-09-22T16:25:46.303Z,96087.00
2018-09-22T16:28:17.958Z,96096.00
2018-09-22T16:30:55.714Z,96086.00
2018-09-22T16:33:26.770Z,96081.00
2018-09-22T16:36:06.614Z,96074.00
2018-09-22T16:38:45.009Z,96082.00
2018-09-22T16:41:23.160Z,96077.00
2018-09-22T16:44:03.426Z,96087.00
2018-09-22T16:46:36.666Z,96084.00
2018-09-22T16:49:36.689Z,96078.00
2018-09-22T16:52:14.419Z,96083.00
2018-09-22T16:54:51.928Z,96078.00
2018-09-22T16:57:29.362Z,96084.00
2018-09-22T17:00:06.007Z,96086.00
2018-09-22T17:02:39.218Z,96079.00
2018-09-22T17:05:09.744Z,96084.00
2018-09-22T17:07:40.691Z,96089.00
2018-09-22T17:10:26.002Z,96092.00
2018-09-22T17:13:01.401Z,96092.00
2018-09-22T17:15:34.415Z,96096.00
2018-09-22T17:18:05.174Z,96088.00
2018-09-22T17:20:37.444Z,96098.00
2018-09-22T17:23:09.344Z,96101.00
2018-09-22T17:25:46.371Z,96094.00
2018-09-22T17:28:20.976Z,96099.00
2018-09-22T17:30:54.186Z,96096.00
2018-09-22T17:34:06.490Z,96100.00
2018-09-22T17:36:49.919Z,96113.00
2018-09-22T17:39:32.994Z,96108.00
2018-09-22T17:42:18.916Z,96110.00
2018-09-22T17:45:04.984Z,96098.00
2018-09-22T17:47:51.798Z,96101.00
2018-09-22T17:50:31.270Z,96095.00
2018-09-22T17:53:13.271Z,96097.00
2018-09-22T17:55:59.367Z,96106.00
2018-09-22T17:58:37.609Z,96100.00
2018-09-22T18:01:22.289Z,96103.00
2018-09-22T18:04:03.124Z,96107.00
2018-09-22T18:06:54.353Z,96119.00
2018-09-22T18:09:30.110Z,96120.00
2018-09-22T18:12:12.837Z,96125.00
2018-09-22T18:14:53.803Z,96138.00
2018-09-22T18:17:31.507Z,96140.00
2018-09-22T18:20:15.816Z,96140.00
2018-09-22T18:22:54.333Z,96149.00
2018-09-22T18:25:39.684Z,96145.00
2018-09-22T18:28:16.186Z,96142.00
2018-09-22T18:30:48.589Z,96139.00
2018-09-22T18:33:19.384Z,96142.00
2018-09-22T18:35:50.081Z,96139.00
2018-09-22T18:38:20.521Z,96141.00
2018-09-22T18:40:56.120Z,96124.00
2018-09-22T18:43:26.471Z,96128.00
2018-09-22T18:45:57.952Z,96126.00
2018-09-22T18:48:38.459Z,96143.00
2018-09-22T18:51:09.269Z,96139.00
2018-09-22T18:53:43.115Z,96150.00
2018-09-22T18:56:22.379Z,96142.00
2018-09-22T18:59:00.918Z,96143.00
2018-09-22T19:01:32.839Z,96138.00
2018-09-22T19:04:10.172Z,96128.00
2018-09-22T19:06:42.647Z,96129.00
2018-09-22T19:09:17.851Z,96127.00
2018-09-22T19:11:52.803Z,96122.00
2018-09-22T19:14:30.985Z,96121.00
2018-09-22T19:17:12.215Z,96130.00
2018-09-22T19:19:58.378Z,96127.00
2018-09-22T19:22:44.411Z,96113.00
2018-09-22T19:25:21.945Z,96115.00
2018-09-22T19:29:03.443Z,96110.00
2018-09-22T19:31:43.596Z,96116.00
2018-09-22T19:34:23.252Z,96120.00
2018-09-22T19:37:01.803Z,96118.00
2018-09-22T19:39:54.542Z,96119.00
2018-09-22T19:42:40.197Z,96115.00
2018-09-22T19:45:18.528Z,96128.00
2018-09-22T19:47:52.791Z,96130.00
2018-09-22T19:50:29.402Z,96136.00
2018-09-22T19:52:59.856Z,96138.00
2018-09-22T19:55:30.188Z,96134.00
2018-09-22T19:58:06.030Z,96137.00
2018-09-22T20:00:42.698Z,96132.00
2018-09-22T20:03:16.377Z,96123.00
2018-09-22T20:05:56.428Z,96122.00
2018-09-22T20:08:27.149Z,96127.00
2018-09-22T20:10:57.873Z,96119.00
2018-09-22T20:13:28.385Z,96111.00
2018-09-22T20:16:00.996Z,96121.00
2018-09-22T20:18:31.432Z,96115.00
2018-09-22T20:21:03.110Z,96111.00
2018-09-22T20:23:34.465Z,96121.00
2018-09-22T20:26:05.670Z,96121.00
2018-09-22T20:28:38.133Z,96132.00
2018-09-22T20:31:10.222Z,96120.00
2018-09-22T20:33:42.578Z,96112.00
2018-09-22T20:36:14.776Z,96110.00
2018-09-22T20:38:45.813Z,96118.00
2018-09-22T20:41:17.094Z,96115.00
2018-09-22T20:43:47.615Z,96109.00
2018-09-22T20:46:17.969Z,96126.00
2018-09-22T20:48:48.386Z,96132.00
2018-09-22T20:51:18.810Z,96144.00
2018-09-22T20:53:49.282Z,96141.00
2018-09-22T20:56:19.704Z,96139.00
2018-09-22T20:58:51.398Z,96132.00
2018-09-22T21:01:22.113Z,96125.00
2018-09-22T21:03:52.757Z,96142.00
2018-09-22T21:06:23.221Z,96138.00
2018-09-22T21:08:55.821Z,96148.00
2018-09-22T21:11:26.261Z,96137.00
2018-09-22T21:13:56.722Z,96129.00
2018-09-22T21:16:32.265Z,96121.00
2018-09-22T21:19:05.602Z,96132.00
2018-09-22T21:21:38.029Z,96121.00
2018-09-22T21:24:09.481Z,96120.00
2018-09-22T21:26:42.705Z,96111.00
2018-09-22T21:29:13.517Z,96117.00
2018-09-22T21:31:46.266Z,96109.00
2018-09-22T21:34:18.482Z,96120.00
2018-09-22T21:36:54.552Z,96119.00
2018-09-22T21:39:26.858Z,96113.00
2018-09-22T21:41:58.355Z,96106.00
2018-09-22T21:44:28.627Z,96094.00
2018-09-22T21:46:59.051Z,96095.00
2018-09-22T21:49:32.000Z,96098.00
2018-09-22T21:52:05.988Z,96093.00
2018-09-22T21:54:37.719Z,96099.00
2018-09-22T21:57:09.866Z,96107.00
2018-09-22T21:59:40.641Z,96097.00
2018-09-22T22:02:12.550Z,96095.00
2018-09-22T22:04:45.613Z,96094.00
2018-09-22T22:07:16.251Z,96111.00
2018-09-22T22:09:55.773Z,96116.00
2018-09-22T22:12:31.002Z,96116.00
2018-09-22T22:15:07.769Z,96121.00
2018-09-22T22:17:50.193Z,96123.00
2018-09-22T22:20:25.973Z,96107.00
2018-09-22T22:23:04.340Z,96115.00
2018-09-22T22:25:44.122Z,96127.00
2018-09-22T22:28:21.430Z,96118.00
2018-09-22T22:30:57.031Z,96118.00
2018-09-22T22:33:34.167Z,96122.00
2018-09-22T22:36:13.643Z,96135.00
2018-09-22T22:38:52.751Z,96140.00
2018-09-22T22:41:28.692Z,96135.00
2018-09-22T22:44:02.126Z,96138.00
2018-09-22T22:46:36.497Z,96115.00
2018-09-22T22:49:12.752Z,96110.00
2018-09-22T22:51:47.057Z,96111.00
2018-09-22T22:54:23.814Z,96116.00
2018-09-22T22:56:59.697Z,96107.00
2018-09-22T22:59:35.366Z,96116.00
2018-09-22T23:02:08.349Z,96129.00
2018-09-22T23:04:40.937Z,96126.00
2018-09-22T23:07:12.502Z,96104.00
2018-09-22T23:09:44.129Z,96095.00
2018-09-22T23:12:14.892Z,96100.00
2018-09-22T23:14:45.807Z,96099.00
2018-09-22T23:17:17.561Z,96106.00
2018-09-22T23:19:47.950Z,96109.00
2018-09-22T23:22:19.617Z,96110.00
2018-09-22T23:24:55.476Z,96109.00
2018-09-22T23:27:28.759Z,96104.00
2018-09-22T23:30:00.667Z,96104.00
2018-09-22T23:32:32.774Z,96119.00
2018-09-22T23:35:03.776Z,96110.00
2018-09-22T23:37:34.476Z,96109.00
2018-09-22T23:40:06.861Z,96097.00
2018-09-22T23:42:37.897Z,96101.00
2018-09-22T23:45:08.894Z,96097.00
2018-09-22T23:47:39.346Z,96106.00
2018-09-22T23:50:11.894Z,96093.00
2018-09-22T23:52:42.433Z,96088.00
2018-09-22T23:55:14.917Z,96077.00
2018-09-22T23:57:45.521Z,96086.00
